This is the latest recevied weather packets stored in our database for station/object KB9GXK. If no packets are shown the sender has not sent any weather packets the latest 10 day(s).
| Time | Temp. | Humidity | Pressure | Rain* | Wind** | Luminosity | Snow |
|---|---|---|---|---|---|---|---|
| 1778077934 | 12.78° C | 39% | 1014.3 hPa | 0 mm | - | 369 W/m² | - |
| 1778077633 | 12.22° C | 41% | 1014.5 hPa | 0 mm | - | 334 W/m² | - |
| 1778077330 | 11.67° C | 41% | 1014.3 hPa | 0 mm | - | 446 W/m² | - |
| 1778077028 | 11.67° C | 41% | 1014.4 hPa | 0 mm | - | 356 W/m² | - |
| 1778076726 | 11.67° C | 41% | 1014.5 hPa | 0 mm | - | 402 W/m² | - |
| 1778076424 | 12.22° C | 41% | 1014.5 hPa | 0 mm | - | 391 W/m² | - |
| 1778076120 | 11.67° C | 42% | 1014 hPa | 0 mm | - | 313 W/m² | - |
| 1778075817 | 11.67° C | 41% | 1014.4 hPa | 0 mm | - | 383 W/m² | - |
| 1778075513 | 10.56° C | 45% | 1014.3 hPa | 0 mm | - | 391 W/m² | - |
| 1778075210 | 11.11° C | 43% | 1014.1 hPa | 0 mm | - | 356 W/m² | - |
| 1778074906 | 10.56° C | 44% | 1014 hPa | 0 mm | - | 336 W/m² | - |
| 1778074603 | 10.56° C | 45% | 1014.1 hPa | 0 mm | - | 347 W/m² | - |
| 1778074300 | 10° C | 45% | 1014.2 hPa | 0 mm | - | 313 W/m² | - |
| 1778073998 | 10° C | 44% | 1014.1 hPa | 0 mm | - | 296 W/m² | - |
| 1778073694 | 10° C | 44% | 1014.1 hPa | 0 mm | - | 93 W/m² | - |
| 1778073392 | 10° C | 44% | 1014.1 hPa | 0 mm | - | 202 W/m² | - |
| 1778073088 | 8.89° C | 45% | 1013.9 hPa | 0 mm | - | 173 W/m² | - |
| 1778072785 | 9.44° C | 46% | 1014.2 hPa | 0 mm | - | 177 W/m² | - |
| 1778072482 | 8.89° C | 48% | 1013.9 hPa | 0 mm | - | 106 W/m² | - |
| 1778072181 | 9.44° C | 49% | 1013.7 hPa | 0 mm | - | 72 W/m² | - |
| 1778071878 | 8.89° C | 52% | 1013.8 hPa | 0 mm | - | 106 W/m² | - |
| 1778071576 | 8.89° C | 54% | 1013.9 hPa | 0 mm | - | 51 W/m² | - |
| 1778071273 | 8.33° C | 57% | 1014.1 hPa | 0 mm | - | 123 W/m² | - |
| 1778070971 | 7.78° C | 59% | 1013.8 hPa | 0 mm | - | 64 W/m² | - |
| 1778070669 | 7.78° C | 60% | 1013.6 hPa | 0 mm | - | 96 W/m² | - |
* Rain latest hour (hover to see other rain measurements)
** Current wind speed in m/s (hover to see current wind gust speed)